sensor_id;sensor_type;location;lat;lon;timestamp;temperature;humidity
44533;DHT22;48673;53.016;-2.258;2022-07-29T00:00:20;17.30;67.70
44533;DHT22;48673;53.016;-2.258;2022-07-29T00:02:47;17.30;67.70
44533;DHT22;48673;53.016;-2.258;2022-07-29T00:05:15;17.30;67.80
44533;DHT22;48673;53.016;-2.258;2022-07-29T00:07:43;17.20;68.10
44533;DHT22;48673;53.016;-2.258;2022-07-29T00:10:11;17.20;68.20
44533;DHT22;48673;53.016;-2.258;2022-07-29T00:12:39;17.20;68.20
44533;DHT22;48673;53.016;-2.258;2022-07-29T00:15:07;17.20;68.20
44533;DHT22;48673;53.016;-2.258;2022-07-29T00:17:35;17.10;68.20
44533;DHT22;48673;53.016;-2.258;2022-07-29T00:20:04;17.00;68.00
44533;DHT22;48673;53.016;-2.258;2022-07-29T00:22:33;17.00;68.10
44533;DHT22;48673;53.016;-2.258;2022-07-29T00:25:04;17.00;68.20
44533;DHT22;48673;53.016;-2.258;2022-07-29T00:27:32;16.90;68.40
44533;DHT22;48673;53.016;-2.258;2022-07-29T00:30:00;16.90;68.40
44533;DHT22;48673;53.016;-2.258;2022-07-29T00:32:27;16.90;68.30
44533;DHT22;48673;53.016;-2.258;2022-07-29T00:34:55;16.90;68.40
44533;DHT22;48673;53.016;-2.258;2022-07-29T00:37:41;16.90;68.60
44533;DHT22;48673;53.016;-2.258;2022-07-29T00:40:09;16.90;68.70
44533;DHT22;48673;53.016;-2.258;2022-07-29T00:42:45;16.80;68.80
44533;DHT22;48673;53.016;-2.258;2022-07-29T00:45:13;16.80;68.90
44533;DHT22;48673;53.016;-2.258;2022-07-29T00:47:41;16.70;69.00
44533;DHT22;48673;53.016;-2.258;2022-07-29T00:50:11;16.70;69.10
44533;DHT22;48673;53.016;-2.258;2022-07-29T00:52:40;16.60;69.10
44533;DHT22;48673;53.016;-2.258;2022-07-29T00:55:11;16.60;69.00
44533;DHT22;48673;53.016;-2.258;2022-07-29T00:57:40;16.60;68.80
44533;DHT22;48673;53.016;-2.258;2022-07-29T01:00:11;16.50;68.70
44533;DHT22;48673;53.016;-2.258;2022-07-29T01:02:44;16.50;68.70
44533;DHT22;48673;53.016;-2.258;2022-07-29T01:05:12;16.50;68.60
44533;DHT22;48673;53.016;-2.258;2022-07-29T01:07:41;16.50;68.60
44533;DHT22;48673;53.016;-2.258;2022-07-29T01:10:10;16.50;68.60
44533;DHT22;48673;53.016;-2.258;2022-07-29T01:12:44;16.40;68.70
44533;DHT22;48673;53.016;-2.258;2022-07-29T01:15:13;16.40;68.60
44533;DHT22;48673;53.016;-2.258;2022-07-29T01:17:46;16.40;68.60
44533;DHT22;48673;53.016;-2.258;2022-07-29T01:20:29;16.40;68.60
44533;DHT22;48673;53.016;-2.258;2022-07-29T01:23:13;16.40;68.50
44533;DHT22;48673;53.016;-2.258;2022-07-29T01:31:07;16.40;68.30
44533;DHT22;48673;53.016;-2.258;2022-07-29T01:33:48;16.30;68.20
44533;DHT22;48673;53.016;-2.258;2022-07-29T01:36:27;16.30;68.10
44533;DHT22;48673;53.016;-2.258;2022-07-29T01:39:10;16.30;68.20
44533;DHT22;48673;53.016;-2.258;2022-07-29T01:41:43;16.30;68.30
44533;DHT22;48673;53.016;-2.258;2022-07-29T01:44:26;16.30;68.30
44533;DHT22;48673;53.016;-2.258;2022-07-29T01:46:58;16.20;68.40
44533;DHT22;48673;53.016;-2.258;2022-07-29T01:49:30;16.20;68.20
44533;DHT22;48673;53.016;-2.258;2022-07-29T01:52:03;16.20;68.20
44533;DHT22;48673;53.016;-2.258;2022-07-29T01:54:39;16.20;68.20
44533;DHT22;48673;53.016;-2.258;2022-07-29T01:57:14;16.10;68.20
44533;DHT22;48673;53.016;-2.258;2022-07-29T01:59:46;16.10;68.20
44533;DHT22;48673;53.016;-2.258;2022-07-29T02:02:16;16.20;68.10
44533;DHT22;48673;53.016;-2.258;2022-07-29T02:04:47;16.10;68.10
44533;DHT22;48673;53.016;-2.258;2022-07-29T02:07:21;16.10;68.20
44533;DHT22;48673;53.016;-2.258;2022-07-29T02:09:50;16.10;68.30
44533;DHT22;48673;53.016;-2.258;2022-07-29T02:12:19;16.00;68.40
44533;DHT22;48673;53.016;-2.258;2022-07-29T02:14:48;16.00;68.30
44533;DHT22;48673;53.016;-2.258;2022-07-29T02:17:22;16.00;68.20
44533;DHT22;48673;53.016;-2.258;2022-07-29T02:19:53;16.00;68.10
44533;DHT22;48673;53.016;-2.258;2022-07-29T02:22:25;15.90;68.10
44533;DHT22;48673;53.016;-2.258;2022-07-29T02:24:55;15.90;68.10
44533;DHT22;48673;53.016;-2.258;2022-07-29T02:27:26;15.90;68.30
44533;DHT22;48673;53.016;-2.258;2022-07-29T02:29:57;15.90;68.30
44533;DHT22;48673;53.016;-2.258;2022-07-29T02:32:26;15.90;68.20
44533;DHT22;48673;53.016;-2.258;2022-07-29T02:34:56;15.90;68.10
44533;DHT22;48673;53.016;-2.258;2022-07-29T02:37:27;15.90;68.10
44533;DHT22;48673;53.016;-2.258;2022-07-29T02:39:57;15.90;68.20
44533;DHT22;48673;53.016;-2.258;2022-07-29T02:42:27;15.90;68.00
44533;DHT22;48673;53.016;-2.258;2022-07-29T02:44:56;15.90;68.00
44533;DHT22;48673;53.016;-2.258;2022-07-29T02:47:37;15.80;68.00
44533;DHT22;48673;53.016;-2.258;2022-07-29T02:50:20;15.90;68.10
44533;DHT22;48673;53.016;-2.258;2022-07-29T02:53:02;15.80;67.90
44533;DHT22;48673;53.016;-2.258;2022-07-29T03:00:49;15.70;68.10
44533;DHT22;48673;53.016;-2.258;2022-07-29T03:03:19;15.70;68.00
44533;DHT22;48673;53.016;-2.258;2022-07-29T03:05:48;15.70;68.10
44533;DHT22;48673;53.016;-2.258;2022-07-29T03:08:16;15.70;68.10
44533;DHT22;48673;53.016;-2.258;2022-07-29T03:10:45;15.70;68.20
44533;DHT22;48673;53.016;-2.258;2022-07-29T03:13:14;15.60;68.30
44533;DHT22;48673;53.016;-2.258;2022-07-29T03:15:44;15.60;68.40
44533;DHT22;48673;53.016;-2.258;2022-07-29T03:18:12;15.60;68.50
44533;DHT22;48673;53.016;-2.258;2022-07-29T03:20:41;15.60;68.60
44533;DHT22;48673;53.016;-2.258;2022-07-29T03:23:09;15.60;68.70
44533;DHT22;48673;53.016;-2.258;2022-07-29T03:25:37;15.50;68.60
44533;DHT22;48673;53.016;-2.258;2022-07-29T03:28:05;15.60;68.70
44533;DHT22;48673;53.016;-2.258;2022-07-29T03:30:32;15.50;68.90
44533;DHT22;48673;53.016;-2.258;2022-07-29T03:33:00;15.50;69.10
44533;DHT22;48673;53.016;-2.258;2022-07-29T03:35:28;15.50;69.50
44533;DHT22;48673;53.016;-2.258;2022-07-29T03:37:59;15.50;70.00
44533;DHT22;48673;53.016;-2.258;2022-07-29T03:40:38;15.40;70.40
44533;DHT22;48673;53.016;-2.258;2022-07-29T03:43:08;15.40;70.90
44533;DHT22;48673;53.016;-2.258;2022-07-29T03:45:38;15.40;71.20
44533;DHT22;48673;53.016;-2.258;2022-07-29T03:48:10;15.30;71.70
44533;DHT22;48673;53.016;-2.258;2022-07-29T03:50:39;15.30;72.30
44533;DHT22;48673;53.016;-2.258;2022-07-29T03:53:08;15.20;72.50
44533;DHT22;48673;53.016;-2.258;2022-07-29T03:55:45;15.10;73.10
44533;DHT22;48673;53.016;-2.258;2022-07-29T03:58:15;15.00;73.50
44533;DHT22;48673;53.016;-2.258;2022-07-29T04:00:44;15.00;73.70
44533;DHT22;48673;53.016;-2.258;2022-07-29T04:03:13;14.90;74.00
44533;DHT22;48673;53.016;-2.258;2022-07-29T04:05:42;14.90;74.40
44533;DHT22;48673;53.016;-2.258;2022-07-29T04:08:09;14.90;74.80
44533;DHT22;48673;53.016;-2.258;2022-07-29T04:10:38;14.90;75.10
44533;DHT22;48673;53.016;-2.258;2022-07-29T04:13:05;14.90;75.40
44533;DHT22;48673;53.016;-2.258;2022-07-29T04:15:33;14.80;75.50
44533;DHT22;48673;53.016;-2.258;2022-07-29T04:18:01;14.80;75.80
44533;DHT22;48673;53.016;-2.258;2022-07-29T04:20:29;14.80;76.00
44533;DHT22;48673;53.016;-2.258;2022-07-29T04:22:57;14.80;76.20
44533;DHT22;48673;53.016;-2.258;2022-07-29T04:25:24;14.80;76.40
44533;DHT22;48673;53.016;-2.258;2022-07-29T04:27:52;14.80;76.70
44533;DHT22;48673;53.016;-2.258;2022-07-29T04:30:31;14.70;76.80
44533;DHT22;48673;53.016;-2.258;2022-07-29T04:33:01;14.70;77.00
44533;DHT22;48673;53.016;-2.258;2022-07-29T04:35:30;14.70;77.20
44533;DHT22;48673;53.016;-2.258;2022-07-29T04:38:06;14.70;77.30
44533;DHT22;48673;53.016;-2.258;2022-07-29T04:40:41;14.70;77.40
44533;DHT22;48673;53.016;-2.258;2022-07-29T04:43:10;14.80;77.50
44533;DHT22;48673;53.016;-2.258;2022-07-29T04:45:40;14.80;77.80
44533;DHT22;48673;53.016;-2.258;2022-07-29T04:48:08;14.70;77.70
44533;DHT22;48673;53.016;-2.258;2022-07-29T04:50:40;14.80;77.80
44533;DHT22;48673;53.016;-2.258;2022-07-29T04:53:08;14.80;78.00
44533;DHT22;48673;53.016;-2.258;2022-07-29T04:55:35;14.80;77.90
44533;DHT22;48673;53.016;-2.258;2022-07-29T04:58:05;14.70;77.90
44533;DHT22;48673;53.016;-2.258;2022-07-29T05:00:33;14.80;78.00
44533;DHT22;48673;53.016;-2.258;2022-07-29T05:03:01;14.80;78.00
44533;DHT22;48673;53.016;-2.258;2022-07-29T05:05:29;14.80;78.20
44533;DHT22;48673;53.016;-2.258;2022-07-29T05:07:57;14.80;78.40
44533;DHT22;48673;53.016;-2.258;2022-07-29T05:10:25;14.80;78.70
44533;DHT22;48673;53.016;-2.258;2022-07-29T05:12:53;14.80;78.90
44533;DHT22;48673;53.016;-2.258;2022-07-29T05:15:20;14.70;79.20
44533;DHT22;48673;53.016;-2.258;2022-07-29T05:17:48;14.70;79.40
44533;DHT22;48673;53.016;-2.258;2022-07-29T05:20:16;14.70;79.80
44533;DHT22;48673;53.016;-2.258;2022-07-29T05:22:43;14.60;80.00
44533;DHT22;48673;53.016;-2.258;2022-07-29T05:25:11;14.60;80.30
44533;DHT22;48673;53.016;-2.258;2022-07-29T05:27:39;14.60;80.50
44533;DHT22;48673;53.016;-2.258;2022-07-29T05:30:07;14.60;80.80
44533;DHT22;48673;53.016;-2.258;2022-07-29T05:32:36;14.60;81.00
44533;DHT22;48673;53.016;-2.258;2022-07-29T05:35:04;14.60;81.10
44533;DHT22;48673;53.016;-2.258;2022-07-29T05:37:33;14.60;81.40
44533;DHT22;48673;53.016;-2.258;2022-07-29T05:40:02;14.60;81.50
44533;DHT22;48673;53.016;-2.258;2022-07-29T05:42:29;14.60;81.50
44533;DHT22;48673;53.016;-2.258;2022-07-29T05:44:57;14.60;81.50
44533;DHT22;48673;53.016;-2.258;2022-07-29T05:47:25;14.60;81.50
44533;DHT22;48673;53.016;-2.258;2022-07-29T05:49:53;14.60;81.60
44533;DHT22;48673;53.016;-2.258;2022-07-29T05:52:21;14.60;81.60
44533;DHT22;48673;53.016;-2.258;2022-07-29T05:54:49;14.60;81.60
44533;DHT22;48673;53.016;-2.258;2022-07-29T05:57:18;14.70;81.70
44533;DHT22;48673;53.016;-2.258;2022-07-29T05:59:46;14.70;81.80
44533;DHT22;48673;53.016;-2.258;2022-07-29T06:02:15;14.70;81.80
44533;DHT22;48673;53.016;-2.258;2022-07-29T06:04:44;14.70;81.80
44533;DHT22;48673;53.016;-2.258;2022-07-29T06:07:12;14.70;81.90
44533;DHT22;48673;53.016;-2.258;2022-07-29T06:09:39;14.70;81.90
44533;DHT22;48673;53.016;-2.258;2022-07-29T06:12:08;14.70;81.90
44533;DHT22;48673;53.016;-2.258;2022-07-29T06:14:36;14.80;82.00
44533;DHT22;48673;53.016;-2.258;2022-07-29T06:17:05;14.80;82.00
44533;DHT22;48673;53.016;-2.258;2022-07-29T06:19:36;14.80;82.40
44533;DHT22;48673;53.016;-2.258;2022-07-29T06:22:04;14.90;82.40
44533;DHT22;48673;53.016;-2.258;2022-07-29T06:24:31;15.00;82.10
44533;DHT22;48673;53.016;-2.258;2022-07-29T06:26:59;15.00;82.00
44533;DHT22;48673;53.016;-2.258;2022-07-29T06:29:27;15.00;82.10
44533;DHT22;48673;53.016;-2.258;2022-07-29T06:31:55;15.10;82.00
44533;DHT22;48673;53.016;-2.258;2022-07-29T06:34:22;15.20;81.90
44533;DHT22;48673;53.016;-2.258;2022-07-29T06:36:50;15.20;81.90
44533;DHT22;48673;53.016;-2.258;2022-07-29T06:39:21;15.30;81.90
44533;DHT22;48673;53.016;-2.258;2022-07-29T06:41:49;15.30;81.80
44533;DHT22;48673;53.016;-2.258;2022-07-29T06:44:18;15.40;81.70
44533;DHT22;48673;53.016;-2.258;2022-07-29T06:46:46;15.40;81.50
44533;DHT22;48673;53.016;-2.258;2022-07-29T06:49:17;15.40;81.40
44533;DHT22;48673;53.016;-2.258;2022-07-29T06:51:45;15.40;81.20
44533;DHT22;48673;53.016;-2.258;2022-07-29T06:54:13;15.50;81.20
44533;DHT22;48673;53.016;-2.258;2022-07-29T06:56:43;15.60;81.10
44533;DHT22;48673;53.016;-2.258;2022-07-29T06:59:12;15.80;81.00
44533;DHT22;48673;53.016;-2.258;2022-07-29T07:01:43;15.90;80.80
44533;DHT22;48673;53.016;-2.258;2022-07-29T07:04:11;16.00;80.60
44533;DHT22;48673;53.016;-2.258;2022-07-29T07:06:40;16.10;80.40
44533;DHT22;48673;53.016;-2.258;2022-07-29T07:09:08;16.10;80.40
44533;DHT22;48673;53.016;-2.258;2022-07-29T07:11:36;16.20;80.40
44533;DHT22;48673;53.016;-2.258;2022-07-29T07:14:04;16.20;80.50
44533;DHT22;48673;53.016;-2.258;2022-07-29T07:16:32;16.20;80.40
44533;DHT22;48673;53.016;-2.258;2022-07-29T07:19:00;16.20;80.50
44533;DHT22;48673;53.016;-2.258;2022-07-29T07:21:28;16.20;80.90
44533;DHT22;48673;53.016;-2.258;2022-07-29T07:23:58;16.30;80.80
44533;DHT22;48673;53.016;-2.258;2022-07-29T07:26:27;16.40;80.50
44533;DHT22;48673;53.016;-2.258;2022-07-29T07:28:54;16.40;80.10
44533;DHT22;48673;53.016;-2.258;2022-07-29T07:31:22;16.40;80.00
44533;DHT22;48673;53.016;-2.258;2022-07-29T07:33:50;16.50;80.00
44533;DHT22;48673;53.016;-2.258;2022-07-29T07:36:19;16.60;80.20
44533;DHT22;48673;53.016;-2.258;2022-07-29T07:38:47;16.90;79.90
44533;DHT22;48673;53.016;-2.258;2022-07-29T07:41:15;16.90;79.20
44533;DHT22;48673;53.016;-2.258;2022-07-29T07:43:43;17.10;78.50
44533;DHT22;48673;53.016;-2.258;2022-07-29T07:46:11;17.30;77.90
44533;DHT22;48673;53.016;-2.258;2022-07-29T07:48:39;17.40;77.60
44533;DHT22;48673;53.016;-2.258;2022-07-29T07:51:07;17.40;77.40
44533;DHT22;48673;53.016;-2.258;2022-07-29T07:53:35;17.50;77.20
44533;DHT22;48673;53.016;-2.258;2022-07-29T07:56:03;17.50;77.00
44533;DHT22;48673;53.016;-2.258;2022-07-29T07:58:39;17.50;76.90
44533;DHT22;48673;53.016;-2.258;2022-07-29T08:01:08;17.50;76.90
44533;DHT22;48673;53.016;-2.258;2022-07-29T08:03:37;17.60;77.30
44533;DHT22;48673;53.016;-2.258;2022-07-29T08:06:05;17.60;77.20
44533;DHT22;48673;53.016;-2.258;2022-07-29T08:08:33;17.60;77.20
44533;DHT22;48673;53.016;-2.258;2022-07-29T08:11:01;17.60;77.30
44533;DHT22;48673;53.016;-2.258;2022-07-29T08:13:37;17.60;77.20
44533;DHT22;48673;53.016;-2.258;2022-07-29T08:16:06;17.70;77.00
44533;DHT22;48673;53.016;-2.258;2022-07-29T08:18:43;17.70;76.70
44533;DHT22;48673;53.016;-2.258;2022-07-29T08:21:12;17.80;76.30
44533;DHT22;48673;53.016;-2.258;2022-07-29T08:23:43;17.90;76.30
44533;DHT22;48673;53.016;-2.258;2022-07-29T08:26:29;18.00;75.90
44533;DHT22;48673;53.016;-2.258;2022-07-29T08:28:57;18.10;75.60
44533;DHT22;48673;53.016;-2.258;2022-07-29T08:31:25;18.20;75.20
44533;DHT22;48673;53.016;-2.258;2022-07-29T08:33:54;18.40;75.00
44533;DHT22;48673;53.016;-2.258;2022-07-29T08:36:26;18.50;75.10
44533;DHT22;48673;53.016;-2.258;2022-07-29T08:38:54;18.70;74.50
44533;DHT22;48673;53.016;-2.258;2022-07-29T08:41:23;18.90;73.80
44533;DHT22;48673;53.016;-2.258;2022-07-29T08:43:54;19.00;73.40
44533;DHT22;48673;53.016;-2.258;2022-07-29T08:46:27;19.20;72.70
44533;DHT22;48673;53.016;-2.258;2022-07-29T08:48:58;19.30;72.00
44533;DHT22;48673;53.016;-2.258;2022-07-29T08:51:26;19.40;71.30
44533;DHT22;48673;53.016;-2.258;2022-07-29T08:53:55;19.40;71.20
44533;DHT22;48673;53.016;-2.258;2022-07-29T08:56:23;19.50;71.30
44533;DHT22;48673;53.016;-2.258;2022-07-29T08:58:51;19.60;70.90
44533;DHT22;48673;53.016;-2.258;2022-07-29T09:01:24;19.80;70.60
44533;DHT22;48673;53.016;-2.258;2022-07-29T09:04:12;19.80;70.10
44533;DHT22;48673;53.016;-2.258;2022-07-29T09:06:45;19.90;70.00
44533;DHT22;48673;53.016;-2.258;2022-07-29T09:09:14;19.90;69.50
44533;DHT22;48673;53.016;-2.258;2022-07-29T09:11:42;19.90;69.40
44533;DHT22;48673;53.016;-2.258;2022-07-29T09:14:14;19.90;69.20
44533;DHT22;48673;53.016;-2.258;2022-07-29T09:16:54;19.90;69.10
44533;DHT22;48673;53.016;-2.258;2022-07-29T09:19:34;19.90;68.90
44533;DHT22;48673;53.016;-2.258;2022-07-29T09:22:11;19.90;68.80
44533;DHT22;48673;53.016;-2.258;2022-07-29T09:24:44;19.80;68.80
44533;DHT22;48673;53.016;-2.258;2022-07-29T09:27:25;19.90;68.80
44533;DHT22;48673;53.016;-2.258;2022-07-29T09:32:33;20.20;68.20
44533;DHT22;48673;53.016;-2.258;2022-07-29T09:35:17;20.30;67.60
44533;DHT22;48673;53.016;-2.258;2022-07-29T09:37:46;20.30;67.30
44533;DHT22;48673;53.016;-2.258;2022-07-29T09:40:16;20.40;67.20
44533;DHT22;48673;53.016;-2.258;2022-07-29T09:42:45;20.40;67.00
44533;DHT22;48673;53.016;-2.258;2022-07-29T09:45:32;20.40;66.60
44533;DHT22;48673;53.016;-2.258;2022-07-29T09:48:14;20.40;65.90
44533;DHT22;48673;53.016;-2.258;2022-07-29T09:50:44;20.50;65.30
44533;DHT22;48673;53.016;-2.258;2022-07-29T09:53:12;20.50;65.10
44533;DHT22;48673;53.016;-2.258;2022-07-29T09:55:56;20.50;64.90
44533;DHT22;48673;53.016;-2.258;2022-07-29T09:58:24;20.50;64.80
44533;DHT22;48673;53.016;-2.258;2022-07-29T10:00:53;20.60;65.00
44533;DHT22;48673;53.016;-2.258;2022-07-29T10:03:25;20.70;64.60
44533;DHT22;48673;53.016;-2.258;2022-07-29T10:06:10;20.80;64.50
44533;DHT22;48673;53.016;-2.258;2022-07-29T10:08:38;20.90;63.80
44533;DHT22;48673;53.016;-2.258;2022-07-29T10:11:14;20.90;63.40
44533;DHT22;48673;53.016;-2.258;2022-07-29T10:13:46;20.80;63.10
44533;DHT22;48673;53.016;-2.258;2022-07-29T10:16:17;20.80;63.50
44533;DHT22;48673;53.016;-2.258;2022-07-29T10:18:45;20.90;63.60
44533;DHT22;48673;53.016;-2.258;2022-07-29T10:21:14;20.90;63.50
44533;DHT22;48673;53.016;-2.258;2022-07-29T10:24:02;21.10;63.70
44533;DHT22;48673;53.016;-2.258;2022-07-29T10:26:31;21.20;63.50
44533;DHT22;48673;53.016;-2.258;2022-07-29T10:29:01;21.20;62.90
44533;DHT22;48673;53.016;-2.258;2022-07-29T10:31:38;21.30;62.60
44533;DHT22;48673;53.016;-2.258;2022-07-29T10:42:25;21.50;61.60
44533;DHT22;48673;53.016;-2.258;2022-07-29T10:45:02;21.40;61.90
44533;DHT22;48673;53.016;-2.258;2022-07-29T10:47:31;21.40;61.70
44533;DHT22;48673;53.016;-2.258;2022-07-29T10:50:03;21.40;61.80
44533;DHT22;48673;53.016;-2.258;2022-07-29T10:52:51;21.40;61.80
44533;DHT22;48673;53.016;-2.258;2022-07-29T10:55:36;21.60;61.80
44533;DHT22;48673;53.016;-2.258;2022-07-29T10:58:24;21.70;61.40
44533;DHT22;48673;53.016;-2.258;2022-07-29T11:00:54;21.90;61.20
44533;DHT22;48673;53.016;-2.258;2022-07-29T11:03:43;22.00;60.70
44533;DHT22;48673;53.016;-2.258;2022-07-29T11:06:17;22.20;59.70
44533;DHT22;48673;53.016;-2.258;2022-07-29T11:09:17;22.20;59.10
44533;DHT22;48673;53.016;-2.258;2022-07-29T11:11:52;22.40;58.60
44533;DHT22;48673;53.016;-2.258;2022-07-29T11:17:19;22.60;57.90
44533;DHT22;48673;53.016;-2.258;2022-07-29T11:19:48;22.60;58.10
44533;DHT22;48673;53.016;-2.258;2022-07-29T11:22:35;22.70;57.60
44533;DHT22;48673;53.016;-2.258;2022-07-29T11:25:14;22.90;57.80
44533;DHT22;48673;53.016;-2.258;2022-07-29T11:27:44;22.90;57.10
44533;DHT22;48673;53.016;-2.258;2022-07-29T11:30:12;23.00;56.70
44533;DHT22;48673;53.016;-2.258;2022-07-29T11:32:43;23.10;56.60
44533;DHT22;48673;53.016;-2.258;2022-07-29T11:35:17;23.10;56.70
44533;DHT22;48673;53.016;-2.258;2022-07-29T11:41:20;23.00;56.00
44533;DHT22;48673;53.016;-2.258;2022-07-29T11:43:57;22.90;56.60
44533;DHT22;48673;53.016;-2.258;2022-07-29T11:46:49;22.80;57.30
44533;DHT22;48673;53.016;-2.258;2022-07-29T11:49:25;22.70;57.10
44533;DHT22;48673;53.016;-2.258;2022-07-29T11:51:59;22.60;57.20
44533;DHT22;48673;53.016;-2.258;2022-07-29T11:54:33;22.50;57.60
44533;DHT22;48673;53.016;-2.258;2022-07-29T11:57:21;22.50;57.60
44533;DHT22;48673;53.016;-2.258;2022-07-29T12:00:05;22.40;57.80
44533;DHT22;48673;53.016;-2.258;2022-07-29T12:02:42;22.30;57.90
44533;DHT22;48673;53.016;-2.258;2022-07-29T12:05:15;22.30;58.00
44533;DHT22;48673;53.016;-2.258;2022-07-29T12:08:07;22.30;58.10
44533;DHT22;48673;53.016;-2.258;2022-07-29T12:10:39;22.20;58.10
44533;DHT22;48673;53.016;-2.258;2022-07-29T12:13:09;22.30;58.60
44533;DHT22;48673;53.016;-2.258;2022-07-29T12:15:39;22.30;58.60
44533;DHT22;48673;53.016;-2.258;2022-07-29T12:18:18;22.20;58.30
44533;DHT22;48673;53.016;-2.258;2022-07-29T12:21:00;22.10;58.40
44533;DHT22;48673;53.016;-2.258;2022-07-29T12:26:58;21.90;58.60
44533;DHT22;48673;53.016;-2.258;2022-07-29T12:29:26;21.90;59.10
44533;DHT22;48673;53.016;-2.258;2022-07-29T12:32:03;21.90;59.10
44533;DHT22;48673;53.016;-2.258;2022-07-29T12:34:46;21.90;58.50
44533;DHT22;48673;53.016;-2.258;2022-07-29T12:37:13;21.90;57.80
44533;DHT22;48673;53.016;-2.258;2022-07-29T12:39:41;21.90;57.70
44533;DHT22;48673;53.016;-2.258;2022-07-29T12:42:13;21.90;57.70
44533;DHT22;48673;53.016;-2.258;2022-07-29T12:44:48;22.00;57.80
44533;DHT22;48673;53.016;-2.258;2022-07-29T12:47:17;22.00;57.10
44533;DHT22;48673;53.016;-2.258;2022-07-29T12:49:49;22.10;56.40
44533;DHT22;48673;53.016;-2.258;2022-07-29T12:52:51;22.20;56.00
44533;DHT22;48673;53.016;-2.258;2022-07-29T12:55:11;22.20;55.90
44533;DHT22;48673;53.016;-2.258;2022-07-29T12:57:49;22.20;55.40
44533;DHT22;48673;53.016;-2.258;2022-07-29T13:00:24;22.30;55.20
44533;DHT22;48673;53.016;-2.258;2022-07-29T13:02:57;22.40;55.00
44533;DHT22;48673;53.016;-2.258;2022-07-29T13:05:39;22.40;55.20
44533;DHT22;48673;53.016;-2.258;2022-07-29T13:08:16;22.50;55.20
44533;DHT22;48673;53.016;-2.258;2022-07-29T13:10:48;22.70;55.20
44533;DHT22;48673;53.016;-2.258;2022-07-29T13:13:16;22.70;55.00
44533;DHT22;48673;53.016;-2.258;2022-07-29T13:15:45;22.80;55.40
44533;DHT22;48673;53.016;-2.258;2022-07-29T13:18:31;22.80;55.20
44533;DHT22;48673;53.016;-2.258;2022-07-29T13:21:14;22.90;54.60
44533;DHT22;48673;53.016;-2.258;2022-07-29T13:23:45;23.10;54.80
44533;DHT22;48673;53.016;-2.258;2022-07-29T13:26:12;23.20;54.90
44533;DHT22;48673;53.016;-2.258;2022-07-29T13:28:40;23.40;55.10
44533;DHT22;48673;53.016;-2.258;2022-07-29T13:31:11;23.60;54.30
44533;DHT22;48673;53.016;-2.258;2022-07-29T13:33:38;23.90;53.70
44533;DHT22;48673;53.016;-2.258;2022-07-29T13:36:07;24.00;52.90
44533;DHT22;48673;53.016;-2.258;2022-07-29T13:38:36;24.00;52.20
44533;DHT22;48673;53.016;-2.258;2022-07-29T13:41:04;24.00;51.60
44533;DHT22;48673;53.016;-2.258;2022-07-29T13:43:32;23.90;51.70
44533;DHT22;48673;53.016;-2.258;2022-07-29T13:46:00;23.80;51.70
44533;DHT22;48673;53.016;-2.258;2022-07-29T13:48:27;23.70;51.80
44533;DHT22;48673;53.016;-2.258;2022-07-29T13:50:56;23.70;52.40
44533;DHT22;48673;53.016;-2.258;2022-07-29T13:53:24;23.80;52.40
44533;DHT22;48673;53.016;-2.258;2022-07-29T13:55:54;23.90;52.20
44533;DHT22;48673;53.016;-2.258;2022-07-29T13:58:25;23.90;52.60
44533;DHT22;48673;53.016;-2.258;2022-07-29T14:00:52;23.90;52.60
44533;DHT22;48673;53.016;-2.258;2022-07-29T14:03:23;24.00;52.30
44533;DHT22;48673;53.016;-2.258;2022-07-29T14:05:51;24.00;51.80
44533;DHT22;48673;53.016;-2.258;2022-07-29T14:08:19;24.00;51.50
44533;DHT22;48673;53.016;-2.258;2022-07-29T14:10:47;24.10;51.30
44533;DHT22;48673;53.016;-2.258;2022-07-29T14:13:17;24.10;51.30
44533;DHT22;48673;53.016;-2.258;2022-07-29T14:15:52;24.00;51.10
44533;DHT22;48673;53.016;-2.258;2022-07-29T14:18:20;24.00;50.50
44533;DHT22;48673;53.016;-2.258;2022-07-29T14:20:48;24.00;50.50
44533;DHT22;48673;53.016;-2.258;2022-07-29T14:23:16;23.90;50.80
44533;DHT22;48673;53.016;-2.258;2022-07-29T14:25:46;23.90;51.20
44533;DHT22;48673;53.016;-2.258;2022-07-29T14:28:15;23.80;51.30
44533;DHT22;48673;53.016;-2.258;2022-07-29T14:30:43;23.70;51.30
44533;DHT22;48673;53.016;-2.258;2022-07-29T14:33:11;23.60;51.40
44533;DHT22;48673;53.016;-2.258;2022-07-29T14:35:40;23.50;52.10
44533;DHT22;48673;53.016;-2.258;2022-07-29T14:38:08;23.50;52.40
44533;DHT22;48673;53.016;-2.258;2022-07-29T14:40:36;23.40;52.20
44533;DHT22;48673;53.016;-2.258;2022-07-29T14:43:04;23.40;52.30
44533;DHT22;48673;53.016;-2.258;2022-07-29T14:45:33;23.40;51.90
44533;DHT22;48673;53.016;-2.258;2022-07-29T14:48:01;23.40;51.70
44533;DHT22;48673;53.016;-2.258;2022-07-29T14:50:31;23.40;51.70
44533;DHT22;48673;53.016;-2.258;2022-07-29T14:53:00;23.50;51.40
44533;DHT22;48673;53.016;-2.258;2022-07-29T14:55:29;23.60;51.10
44533;DHT22;48673;53.016;-2.258;2022-07-29T14:57:57;23.60;51.10
44533;DHT22;48673;53.016;-2.258;2022-07-29T15:00:37;23.60;51.00
44533;DHT22;48673;53.016;-2.258;2022-07-29T15:03:06;23.50;51.20
44533;DHT22;48673;53.016;-2.258;2022-07-29T15:05:38;23.40;51.40
44533;DHT22;48673;53.016;-2.258;2022-07-29T15:08:06;23.30;51.50
44533;DHT22;48673;53.016;-2.258;2022-07-29T15:10:36;23.20;52.10
44533;DHT22;48673;53.016;-2.258;2022-07-29T15:13:05;23.10;52.20
44533;DHT22;48673;53.016;-2.258;2022-07-29T15:15:33;23.00;52.40
44533;DHT22;48673;53.016;-2.258;2022-07-29T15:18:01;22.90;52.60
44533;DHT22;48673;53.016;-2.258;2022-07-29T15:20:29;22.70;53.00
44533;DHT22;48673;53.016;-2.258;2022-07-29T15:22:57;22.50;53.40
44533;DHT22;48673;53.016;-2.258;2022-07-29T15:25:26;22.40;53.60
44533;DHT22;48673;53.016;-2.258;2022-07-29T15:27:55;22.30;53.90
44533;DHT22;48673;53.016;-2.258;2022-07-29T15:30:31;22.30;54.10
44533;DHT22;48673;53.016;-2.258;2022-07-29T15:33:04;22.30;54.20
44533;DHT22;48673;53.016;-2.258;2022-07-29T15:35:32;22.30;54.30
44533;DHT22;48673;53.016;-2.258;2022-07-29T15:38:07;22.40;54.60
44533;DHT22;48673;53.016;-2.258;2022-07-29T15:40:38;22.30;54.80
44533;DHT22;48673;53.016;-2.258;2022-07-29T15:43:08;22.30;54.70
44533;DHT22;48673;53.016;-2.258;2022-07-29T15:45:41;22.20;54.90
44533;DHT22;48673;53.016;-2.258;2022-07-29T15:48:30;22.10;54.90
44533;DHT22;48673;53.016;-2.258;2022-07-29T15:51:02;22.10;55.00
44533;DHT22;48673;53.016;-2.258;2022-07-29T15:53:30;22.00;55.10
44533;DHT22;48673;53.016;-2.258;2022-07-29T15:55:59;22.10;55.10
44533;DHT22;48673;53.016;-2.258;2022-07-29T15:58:28;22.10;55.20
44533;DHT22;48673;53.016;-2.258;2022-07-29T16:00:56;22.20;55.30
44533;DHT22;48673;53.016;-2.258;2022-07-29T16:03:24;22.30;55.20
44533;DHT22;48673;53.016;-2.258;2022-07-29T16:05:52;22.40;55.00
44533;DHT22;48673;53.016;-2.258;2022-07-29T16:08:21;22.40;55.10
44533;DHT22;48673;53.016;-2.258;2022-07-29T16:10:49;22.50;55.40